sensor_id;sensor_type;location;lat;lon;timestamp;pressure;altitude;pressure_sealevel;temperature;humidity
53526;BME280;40551;50.478;19.378;2022-08-06T00:02:11;97694.15;;;18.65;72.06
53526;BME280;40551;50.478;19.378;2022-08-06T00:04:39;97688.71;;;18.65;72.24
53526;BME280;40551;50.478;19.378;2022-08-06T00:07:10;97690.85;;;18.63;72.21
53526;BME280;40551;50.478;19.378;2022-08-06T00:09:49;97690.10;;;18.61;72.35
53526;BME280;40551;50.478;19.378;2022-08-06T00:12:27;97691.51;;;18.65;72.50
53526;BME280;40551;50.478;19.378;2022-08-06T00:14:57;97691.60;;;18.72;72.80
53526;BME280;40551;50.478;19.378;2022-08-06T00:17:25;97691.45;;;18.76;72.83
53526;BME280;40551;50.478;19.378;2022-08-06T00:20:01;97689.73;;;18.77;72.42
53526;BME280;40551;50.478;19.378;2022-08-06T00:22:30;97689.20;;;18.71;72.11
53526;BME280;40551;50.478;19.378;2022-08-06T00:25:00;97689.89;;;18.66;72.13
53526;BME280;40551;50.478;19.378;2022-08-06T00:27:28;97690.24;;;18.64;72.37
53526;BME280;40551;50.478;19.378;2022-08-06T00:30:08;97687.95;;;18.67;72.61
53526;BME280;40551;50.478;19.378;2022-08-06T00:32:42;97690.16;;;18.68;72.35
53526;BME280;40551;50.478;19.378;2022-08-06T00:35:10;97692.81;;;18.66;72.40
53526;BME280;40551;50.478;19.378;2022-08-06T00:37:38;97694.83;;;18.64;72.42
53526;BME280;40551;50.478;19.378;2022-08-06T00:40:27;97696.08;;;18.59;72.28
53526;BME280;40551;50.478;19.378;2022-08-06T00:42:57;97696.20;;;18.54;72.39
53526;BME280;40551;50.478;19.378;2022-08-06T00:45:28;97693.17;;;18.51;72.40
53526;BME280;40551;50.478;19.378;2022-08-06T00:47:59;97692.69;;;18.47;72.50
53526;BME280;40551;50.478;19.378;2022-08-06T00:50:31;97693.91;;;18.43;72.50
53526;BME280;40551;50.478;19.378;2022-08-06T00:53:00;97697.56;;;18.39;72.68
53526;BME280;40551;50.478;19.378;2022-08-06T00:55:30;97701.87;;;18.39;73.00
53526;BME280;40551;50.478;19.378;2022-08-06T00:58:04;97726.79;;;18.44;73.12
53526;BME280;40551;50.478;19.378;2022-08-06T01:00:34;97737.19;;;18.47;73.32
53526;BME280;40551;50.478;19.378;2022-08-06T01:03:06;97736.68;;;18.48;73.45
53526;BME280;40551;50.478;19.378;2022-08-06T01:05:54;97731.41;;;18.52;73.70
53526;BME280;40551;50.478;19.378;2022-08-06T01:08:42;97722.84;;;18.55;73.58
53526;BME280;40551;50.478;19.378;2022-08-06T01:11:12;97728.40;;;18.56;73.50
53526;BME280;40551;50.478;19.378;2022-08-06T01:13:41;97732.44;;;18.64;73.61
53526;BME280;40551;50.478;19.378;2022-08-06T01:16:37;97731.27;;;18.68;73.45
53526;BME280;40551;50.478;19.378;2022-08-06T01:19:21;97726.51;;;18.68;73.27
53526;BME280;40551;50.478;19.378;2022-08-06T01:22:24;97733.00;;;18.67;73.39
53526;BME280;40551;50.478;19.378;2022-08-06T01:25:17;97730.95;;;18.69;73.41
53526;BME280;40551;50.478;19.378;2022-08-06T01:27:54;97734.59;;;18.72;73.32
53526;BME280;40551;50.478;19.378;2022-08-06T01:30:28;97740.11;;;18.73;73.30
53526;BME280;40551;50.478;19.378;2022-08-06T01:33:00;97740.83;;;18.76;73.19
53526;BME280;40551;50.478;19.378;2022-08-06T01:35:40;97739.30;;;18.80;73.19
53526;BME280;40551;50.478;19.378;2022-08-06T01:38:31;97752.15;;;18.79;73.04
53526;BME280;40551;50.478;19.378;2022-08-06T01:41:05;97754.63;;;18.79;72.99
53526;BME280;40551;50.478;19.378;2022-08-06T01:43:35;97751.25;;;18.78;72.90
53526;BME280;40551;50.478;19.378;2022-08-06T01:46:25;97737.02;;;18.74;72.96
53526;BME280;40551;50.478;19.378;2022-08-06T01:48:55;97740.13;;;18.67;72.67
53526;BME280;40551;50.478;19.378;2022-08-06T01:51:25;97757.95;;;18.59;72.66
53526;BME280;40551;50.478;19.378;2022-08-06T01:54:15;97753.27;;;18.54;72.78
53526;BME280;40551;50.478;19.378;2022-08-06T01:56:50;97753.42;;;18.45;72.64
53526;BME280;40551;50.478;19.378;2022-08-06T01:59:30;97747.33;;;18.42;73.10
53526;BME280;40551;50.478;19.378;2022-08-06T02:02:00;97753.98;;;18.40;73.35
53526;BME280;40551;50.478;19.378;2022-08-06T02:04:35;97750.71;;;18.36;73.19
53526;BME280;40551;50.478;19.378;2022-08-06T02:07:09;97745.13;;;18.26;72.97
53526;BME280;40551;50.478;19.378;2022-08-06T02:09:59;97745.07;;;18.21;73.41
53526;BME280;40551;50.478;19.378;2022-08-06T02:12:29;97754.63;;;18.20;73.61
53526;BME280;40551;50.478;19.378;2022-08-06T02:15:02;97757.07;;;18.22;73.69
53526;BME280;40551;50.478;19.378;2022-08-06T02:17:39;97758.74;;;18.25;73.77
53526;BME280;40551;50.478;19.378;2022-08-06T02:20:33;97760.21;;;18.28;73.58
53526;BME280;40551;50.478;19.378;2022-08-06T02:23:07;97763.70;;;18.28;73.64
53526;BME280;40551;50.478;19.378;2022-08-06T02:25:37;97762.86;;;18.28;73.34
53526;BME280;40551;50.478;19.378;2022-08-06T02:28:09;97765.73;;;18.21;73.18
53526;BME280;40551;50.478;19.378;2022-08-06T02:30:52;97769.67;;;18.17;73.37
53526;BME280;40551;50.478;19.378;2022-08-06T02:33:21;97767.98;;;18.18;73.42
53526;BME280;40551;50.478;19.378;2022-08-06T02:36:14;97766.57;;;18.19;73.33
53526;BME280;40551;50.478;19.378;2022-08-06T02:38:58;97772.77;;;18.12;73.18
53526;BME280;40551;50.478;19.378;2022-08-06T02:41:42;97775.73;;;18.10;73.42
53526;BME280;40551;50.478;19.378;2022-08-06T02:44:34;97779.49;;;18.08;73.41
53526;BME280;40551;50.478;19.378;2022-08-06T02:47:07;97784.17;;;18.07;73.53
53526;BME280;40551;50.478;19.378;2022-08-06T02:49:46;97799.52;;;18.06;73.64
53526;BME280;40551;50.478;19.378;2022-08-06T02:52:30;97815.63;;;18.03;73.74
53526;BME280;40551;50.478;19.378;2022-08-06T02:55:12;97812.17;;;18.05;74.52
53526;BME280;40551;50.478;19.378;2022-08-06T02:57:47;97814.34;;;18.10;75.01
53526;BME280;40551;50.478;19.378;2022-08-06T03:00:20;97823.74;;;18.16;75.06
53526;BME280;40551;50.478;19.378;2022-08-06T03:02:59;97836.88;;;18.21;75.11
53526;BME280;40551;50.478;19.378;2022-08-06T03:05:29;97841.60;;;18.28;75.80
53526;BME280;40551;50.478;19.378;2022-08-06T03:08:20;97835.02;;;18.38;75.99
53526;BME280;40551;50.478;19.378;2022-08-06T03:10:55;97837.21;;;18.46;76.18
53526;BME280;40551;50.478;19.378;2022-08-06T03:13:26;97852.30;;;18.55;76.15
53526;BME280;40551;50.478;19.378;2022-08-06T03:16:04;97865.87;;;18.65;75.92
53526;BME280;40551;50.478;19.378;2022-08-06T03:18:52;97864.39;;;18.73;76.02
53526;BME280;40551;50.478;19.378;2022-08-06T03:21:43;97867.66;;;18.80;76.04
53526;BME280;40551;50.478;19.378;2022-08-06T03:24:24;97870.55;;;18.87;76.03
53526;BME280;40551;50.478;19.378;2022-08-06T03:26:57;97869.70;;;18.94;76.03
53526;BME280;40551;50.478;19.378;2022-08-06T03:29:27;97873.42;;;19.01;76.09
53526;BME280;40551;50.478;19.378;2022-08-06T03:31:58;97878.35;;;19.08;75.93
53526;BME280;40551;50.478;19.378;2022-08-06T03:34:46;97889.38;;;19.16;75.84
53526;BME280;40551;50.478;19.378;2022-08-06T03:37:20;97889.59;;;19.22;75.72
53526;BME280;40551;50.478;19.378;2022-08-06T03:40:11;97883.55;;;19.31;75.57
53526;BME280;40551;50.478;19.378;2022-08-06T03:42:40;97883.40;;;19.38;75.34
53526;BME280;40551;50.478;19.378;2022-08-06T03:45:11;97880.20;;;19.47;75.35
53526;BME280;40551;50.478;19.378;2022-08-06T03:48:03;97883.92;;;19.62;75.38
53526;BME280;40551;50.478;19.378;2022-08-06T03:50:36;97889.38;;;19.80;75.31
53526;BME280;40551;50.478;19.378;2022-08-06T03:53:12;97892.52;;;19.99;74.97
53526;BME280;40551;50.478;19.378;2022-08-06T03:55:44;97892.08;;;20.21;74.65
53526;BME280;40551;50.478;19.378;2022-08-06T03:58:17;97899.21;;;20.44;74.27
53526;BME280;40551;50.478;19.378;2022-08-06T04:00:59;97901.29;;;20.70;73.87
53526;BME280;40551;50.478;19.378;2022-08-06T04:03:29;97901.42;;;20.95;73.11
53526;BME280;40551;50.478;19.378;2022-08-06T04:06:09;97898.91;;;21.12;72.24
53526;BME280;40551;50.478;19.378;2022-08-06T04:08:48;97901.61;;;21.31;72.01
53526;BME280;40551;50.478;19.378;2022-08-06T04:11:17;97913.09;;;21.43;71.18
53526;BME280;40551;50.478;19.378;2022-08-06T04:14:07;97918.02;;;21.61;70.87
53526;BME280;40551;50.478;19.378;2022-08-06T04:16:37;97923.06;;;21.73;70.61
53526;BME280;40551;50.478;19.378;2022-08-06T04:19:10;97923.09;;;21.93;69.96
53526;BME280;40551;50.478;19.378;2022-08-06T04:21:43;97928.89;;;22.19;69.92
53526;BME280;40551;50.478;19.378;2022-08-06T04:24:31;97926.15;;;22.55;69.10
53526;BME280;40551;50.478;19.378;2022-08-06T04:27:02;97934.77;;;22.88;68.30
53526;BME280;40551;50.478;19.378;2022-08-06T04:29:37;97935.86;;;23.17;67.15
53526;BME280;40551;50.478;19.378;2022-08-06T04:32:27;97943.95;;;23.45;66.33
53526;BME280;40551;50.478;19.378;2022-08-06T04:35:02;97946.33;;;23.66;65.71
53526;BME280;40551;50.478;19.378;2022-08-06T04:37:51;97947.69;;;23.84;64.67
53526;BME280;40551;50.478;19.378;2022-08-06T04:40:21;97951.88;;;24.01;64.52
53526;BME280;40551;50.478;19.378;2022-08-06T04:43:09;97955.61;;;24.25;63.66
53526;BME280;40551;50.478;19.378;2022-08-06T04:45:39;97952.82;;;24.45;63.31
53526;BME280;40551;50.478;19.378;2022-08-06T04:48:28;97963.91;;;24.71;62.73
53526;BME280;40551;50.478;19.378;2022-08-06T04:51:07;97963.06;;;24.87;61.63
53526;BME280;40551;50.478;19.378;2022-08-06T04:53:44;97964.30;;;24.98;61.20
53526;BME280;40551;50.478;19.378;2022-08-06T04:56:25;97963.52;;;25.10;60.65
53526;BME280;40551;50.478;19.378;2022-08-06T04:59:04;97973.48;;;25.25;60.18
53526;BME280;40551;50.478;19.378;2022-08-06T05:01:34;97975.91;;;25.24;59.92
53526;BME280;40551;50.478;19.378;2022-08-06T05:04:23;97982.60;;;25.10;59.94
53526;BME280;40551;50.478;19.378;2022-08-06T05:06:57;97988.55;;;24.92;59.90
53526;BME280;40551;50.478;19.378;2022-08-06T05:09:31;98003.52;;;24.66;59.89
53526;BME280;40551;50.478;19.378;2022-08-06T05:12:18;98006.11;;;24.31;60.17
53526;BME280;40551;50.478;19.378;2022-08-06T05:14:53;98010.38;;;23.97;61.07
53526;BME280;40551;50.478;19.378;2022-08-06T05:17:25;98016.54;;;23.63;61.41
53526;BME280;40551;50.478;19.378;2022-08-06T05:20:06;98018.19;;;23.32;62.31
53526;BME280;40551;50.478;19.378;2022-08-06T05:22:58;98030.09;;;23.01;63.38
53526;BME280;40551;50.478;19.378;2022-08-06T05:25:30;98027.09;;;22.77;63.82
53526;BME280;40551;50.478;19.378;2022-08-06T05:28:05;98038.02;;;22.62;64.60
53526;BME280;40551;50.478;19.378;2022-08-06T05:30:43;98044.77;;;22.48;65.07
53526;BME280;40551;50.478;19.378;2022-08-06T05:33:22;98047.38;;;22.28;65.83
53526;BME280;40551;50.478;19.378;2022-08-06T05:35:51;98057.14;;;22.10;66.41
53526;BME280;40551;50.478;19.378;2022-08-06T05:38:31;98066.92;;;22.00;66.77
53526;BME280;40551;50.478;19.378;2022-08-06T05:41:07;98079.63;;;21.91;67.37
53526;BME280;40551;50.478;19.378;2022-08-06T05:43:37;98084.59;;;21.79;67.78
53526;BME280;40551;50.478;19.378;2022-08-06T05:46:28;98083.55;;;21.69;68.30
53526;BME280;40551;50.478;19.378;2022-08-06T05:49:04;98094.31;;;21.60;68.87
53526;BME280;40551;50.478;19.378;2022-08-06T05:52:00;98093.92;;;21.49;69.45
53526;BME280;40551;50.478;19.378;2022-08-06T05:54:35;98107.64;;;21.44;69.57
53526;BME280;40551;50.478;19.378;2022-08-06T05:57:10;98114.14;;;21.41;69.72
53526;BME280;40551;50.478;19.378;2022-08-06T05:59:52;98114.65;;;21.39;69.84
53526;BME280;40551;50.478;19.378;2022-08-06T06:02:27;98119.42;;;21.39;69.93
53526;BME280;40551;50.478;19.378;2022-08-06T06:04:59;98125.81;;;21.40;70.16
53526;BME280;40551;50.478;19.378;2022-08-06T06:07:49;98130.95;;;21.40;70.23
53526;BME280;40551;50.478;19.378;2022-08-06T06:10:38;98137.48;;;21.38;70.34
53526;BME280;40551;50.478;19.378;2022-08-06T06:13:22;98145.02;;;21.34;70.36
53526;BME280;40551;50.478;19.378;2022-08-06T06:16:09;98155.00;;;21.34;70.58
53526;BME280;40551;50.478;19.378;2022-08-06T06:19:11;98159.39;;;21.31;70.56
53526;BME280;40551;50.478;19.378;2022-08-06T06:21:54;98168.42;;;21.31;70.70
53526;BME280;40551;50.478;19.378;2022-08-06T06:24:28;98167.45;;;21.33;71.17
53526;BME280;40551;50.478;19.378;2022-08-06T06:27:03;98175.43;;;21.33;70.98
53526;BME280;40551;50.478;19.378;2022-08-06T06:29:59;98176.44;;;21.31;71.13
53526;BME280;40551;50.478;19.378;2022-08-06T06:32:42;98183.45;;;21.32;71.16
53526;BME280;40551;50.478;19.378;2022-08-06T06:35:23;98183.69;;;21.36;71.29
53526;BME280;40551;50.478;19.378;2022-08-06T06:38:11;98187.46;;;21.41;71.37
53526;BME280;40551;50.478;19.378;2022-08-06T06:40:49;98192.35;;;21.45;71.11
53526;BME280;40551;50.478;19.378;2022-08-06T06:43:35;98195.13;;;21.48;71.11
53526;BME280;40551;50.478;19.378;2022-08-06T06:46:19;98190.45;;;21.52;70.96
53526;BME280;40551;50.478;19.378;2022-08-06T06:49:14;98196.83;;;21.62;71.08
53526;BME280;40551;50.478;19.378;2022-08-06T06:52:08;98199.46;;;21.71;70.99
53526;BME280;40551;50.478;19.378;2022-08-06T06:54:42;98202.67;;;21.79;70.93
53526;BME280;40551;50.478;19.378;2022-08-06T06:57:18;98205.71;;;21.84;70.32
53526;BME280;40551;50.478;19.378;2022-08-06T06:59:53;98210.47;;;21.82;70.10
53526;BME280;40551;50.478;19.378;2022-08-06T07:02:43;98221.48;;;21.83;70.14
53526;BME280;40551;50.478;19.378;2022-08-06T07:05:14;98220.80;;;21.80;69.89
53526;BME280;40551;50.478;19.378;2022-08-06T07:08:05;98219.15;;;21.73;70.03
53526;BME280;40551;50.478;19.378;2022-08-06T07:10:35;98231.85;;;21.70;69.96
53526;BME280;40551;50.478;19.378;2022-08-06T07:13:04;98230.82;;;21.75;70.31
53526;BME280;40551;50.478;19.378;2022-08-06T07:15:43;98233.86;;;21.84;70.24
53526;BME280;40551;50.478;19.378;2022-08-06T07:18:23;98230.02;;;21.93;70.45
53526;BME280;40551;50.478;19.378;2022-08-06T07:21:02;98227.05;;;22.01;70.08
53526;BME280;40551;50.478;19.378;2022-08-06T07:23:33;98239.09;;;22.10;70.01
53526;BME280;40551;50.478;19.378;2022-08-06T07:26:25;98237.34;;;22.18;69.52
53526;BME280;40551;50.478;19.378;2022-08-06T07:28:57;98242.70;;;22.22;69.25
53526;BME280;40551;50.478;19.378;2022-08-06T07:31:32;98243.29;;;22.26;69.02
53526;BME280;40551;50.478;19.378;2022-08-06T07:34:04;98242.19;;;22.30;68.92
53526;BME280;40551;50.478;19.378;2022-08-06T07:36:39;98236.52;;;22.37;68.77
53526;BME280;40551;50.478;19.378;2022-08-06T07:39:25;98237.64;;;22.35;67.21
53526;BME280;40551;50.478;19.378;2022-08-06T07:42:01;98249.86;;;22.32;66.77
53526;BME280;40551;50.478;19.378;2022-08-06T07:44:43;98253.58;;;22.31;66.32
53526;BME280;40551;50.478;19.378;2022-08-06T07:47:29;98261.19;;;22.28;65.91
53526;BME280;40551;50.478;19.378;2022-08-06T07:50:18;98266.73;;;22.26;65.78
53526;BME280;40551;50.478;19.378;2022-08-06T07:52:52;98277.06;;;22.21;65.63
53526;BME280;40551;50.478;19.378;2022-08-06T07:55:22;98282.55;;;22.13;65.68
53526;BME280;40551;50.478;19.378;2022-08-06T07:57:53;98291.23;;;22.09;66.09
53526;BME280;40551;50.478;19.378;2022-08-06T08:00:27;98301.16;;;22.06;66.06
53526;BME280;40551;50.478;19.378;2022-08-06T08:02:56;98307.34;;;21.99;66.06
53526;BME280;40551;50.478;19.378;2022-08-06T08:06:04;98313.86;;;21.84;66.06
53526;BME280;40551;50.478;19.378;2022-08-06T08:08:54;98315.94;;;21.69;66.41
53526;BME280;40551;50.478;19.378;2022-08-06T08:11:24;98320.42;;;21.54;66.84
53526;BME280;40551;50.478;19.378;2022-08-06T08:14:15;98321.28;;;21.40;67.48
53526;BME280;40551;50.478;19.378;2022-08-06T08:16:46;98328.06;;;21.29;67.92
53526;BME280;40551;50.478;19.378;2022-08-06T08:19:24;98328.70;;;21.22;68.56
53526;BME280;40551;50.478;19.378;2022-08-06T08:22:05;98333.66;;;21.12;69.15
53526;BME280;40551;50.478;19.378;2022-08-06T08:24:35;98331.23;;;21.04;69.77
53526;BME280;40551;50.478;19.378;2022-08-06T08:27:05;98334.98;;;20.94;70.07
53526;BME280;40551;50.478;19.378;2022-08-06T08:29:49;98329.56;;;20.86;70.58
53526;BME280;40551;50.478;19.378;2022-08-06T08:32:23;98318.72;;;20.83;70.94
53526;BME280;40551;50.478;19.378;2022-08-06T08:34:52;98318.42;;;20.82;71.25
53526;BME280;40551;50.478;19.378;2022-08-06T08:37:23;98323.70;;;20.79;71.60
53526;BME280;40551;50.478;19.378;2022-08-06T08:39:51;98339.73;;;20.72;71.74
53526;BME280;40551;50.478;19.378;2022-08-06T08:42:28;98346.48;;;20.65;72.23
53526;BME280;40551;50.478;19.378;2022-08-06T08:45:04;98348.91;;;20.56;72.68
53526;BME280;40551;50.478;19.378;2022-08-06T08:47:46;98347.65;;;20.43;72.92
53526;BME280;40551;50.478;19.378;2022-08-06T08:50:30;98345.41;;;20.33;73.46
53526;BME280;40551;50.478;19.378;2022-08-06T08:53:04;98343.89;;;20.25;73.77
53526;BME280;40551;50.478;19.378;2022-08-06T08:55:36;98350.11;;;20.19;74.44
53526;BME280;40551;50.478;19.378;2022-08-06T08:58:26;98364.57;;;20.14;74.51
53526;BME280;40551;50.478;19.378;2022-08-06T09:01:12;98369.04;;;20.08;74.56
53526;BME280;40551;50.478;19.378;2022-08-06T09:04:03;98381.96;;;19.97;74.55
53526;BME280;40551;50.478;19.378;2022-08-06T09:06:37;98390.85;;;19.89;74.67
53526;BME280;40551;50.478;19.378;2022-08-06T09:09:07;98396.02;;;19.82;74.82
53526;BME280;40551;50.478;19.378;2022-08-06T09:11:46;98407.10;;;19.73;74.93
53526;BME280;40551;50.478;19.378;2022-08-06T09:14:38;98412.02;;;19.64;75.01
53526;BME280;40551;50.478;19.378;2022-08-06T09:17:12;98409.97;;;19.56;75.31
53526;BME280;40551;50.478;19.378;2022-08-06T09:19:45;98406.12;;;19.48;75.50
53526;BME280;40551;50.478;19.378;2022-08-06T09:22:16;98400.15;;;19.40;75.90
53526;BME280;40551;50.478;19.378;2022-08-06T09:24:50;98390.22;;;19.30;76.16
53526;BME280;40551;50.478;19.378;2022-08-06T09:27:18;98387.59;;;19.25;76.65
53526;BME280;40551;50.478;19.378;2022-08-06T09:30:08;98388.39;;;19.19;77.01
53526;BME280;40551;50.478;19.378;2022-08-06T09:32:58;98394.42;;;19.15;77.57
53526;BME280;40551;50.478;19.378;2022-08-06T09:35:31;98398.83;;;19.12;77.70
53526;BME280;40551;50.478;19.378;2022-08-06T09:38:13;98403.54;;;19.11;77.79
53526;BME280;40551;50.478;19.378;2022-08-06T09:41:04;98405.56;;;19.13;78.02
53526;BME280;40551;50.478;19.378;2022-08-06T09:43:35;98403.18;;;19.16;78.14
53526;BME280;40551;50.478;19.378;2022-08-06T09:46:38;98404.49;;;19.19;78.20
53526;BME280;40551;50.478;19.378;2022-08-06T09:49:08;98403.27;;;19.21;78.24
53526;BME280;40551;50.478;19.378;2022-08-06T09:52:15;98404.21;;;19.25;78.40
53526;BME280;40551;50.478;19.378;2022-08-06T09:54:45;98407.54;;;19.26;78.39
53526;BME280;40551;50.478;19.378;2022-08-06T09:57:23;98418.67;;;19.29;78.32
53526;BME280;40551;50.478;19.378;2022-08-06T10:00:04;98424.55;;;19.32;78.14
53526;BME280;40551;50.478;19.378;2022-08-06T10:02:42;98424.13;;;19.31;77.93
53526;BME280;40551;50.478;19.378;2022-08-06T10:05:18;98425.12;;;19.26;77.70
53526;BME280;40551;50.478;19.378;2022-08-06T10:08:03;98428.40;;;19.24;77.55
53526;BME280;40551;50.478;19.378;2022-08-06T10:10:45;98424.29;;;19.18;77.58
53526;BME280;40551;50.478;19.378;2022-08-06T10:13:19;98424.69;;;19.14;77.47
53526;BME280;40551;50.478;19.378;2022-08-06T10:15:50;98428.20;;;19.06;77.43
53526;BME280;40551;50.478;19.378;2022-08-06T10:18:33;98426.08;;;18.98;77.59
53526;BME280;40551;50.478;19.378;2022-08-06T10:21:24;98436.42;;;18.89;77.80
53526;BME280;40551;50.478;19.378;2022-08-06T10:23:55;98448.77;;;18.81;77.70
53526;BME280;40551;50.478;19.378;2022-08-06T10:26:27;98449.63;;;18.73;77.77
53526;BME280;40551;50.478;19.378;2022-08-06T10:29:03;98449.27;;;18.72;78.17
53526;BME280;40551;50.478;19.378;2022-08-06T10:31:32;98453.47;;;18.67;77.99
53526;BME280;40551;50.478;19.378;2022-08-06T10:34:03;98459.26;;;18.64;78.16
53526;BME280;40551;50.478;19.378;2022-08-06T10:36:36;98467.15;;;18.62;78.10
53526;BME280;40551;50.478;19.378;2022-08-06T10:39:07;98473.02;;;18.62;78.21
53526;BME280;40551;50.478;19.378;2022-08-06T10:41:56;98476.05;;;18.55;78.04
53526;BME280;40551;50.478;19.378;2022-08-06T10:44:34;98480.37;;;18.48;77.93
53526;BME280;40551;50.478;19.378;2022-08-06T10:47:11;98485.96;;;18.45;77.94
53526;BME280;40551;50.478;19.378;2022-08-06T10:50:00;98494.74;;;18.42;78.18
53526;BME280;40551;50.478;19.378;2022-08-06T10:52:48;98498.35;;;18.34;78.13
53526;BME280;40551;50.478;19.378;2022-08-06T10:55:17;98498.95;;;18.32;78.23
53526;BME280;40551;50.478;19.378;2022-08-06T10:57:46;98497.32;;;18.28;78.18
53526;BME280;40551;50.478;19.378;2022-08-06T11:00:14;98499.02;;;18.24;78.10
53526;BME280;40551;50.478;19.378;2022-08-06T11:02:52;98508.05;;;18.25;78.40
53526;BME280;40551;50.478;19.378;2022-08-06T11:05:28;98516.84;;;18.28;78.45
53526;BME280;40551;50.478;19.378;2022-08-06T11:08:27;98518.48;;;18.27;78.22
53526;BME280;40551;50.478;19.378;2022-08-06T11:11:37;98519.20;;;18.32;78.64
53526;BME280;40551;50.478;19.378;2022-08-06T11:14:10;98521.34;;;18.35;78.60
53526;BME280;40551;50.478;19.378;2022-08-06T11:16:55;98524.69;;;18.35;78.43
53526;BME280;40551;50.478;19.378;2022-08-06T11:19:39;98523.60;;;18.36;78.55
53526;BME280;40551;50.478;19.378;2022-08-06T11:22:35;98526.67;;;18.41;78.30
53526;BME280;40551;50.478;19.378;2022-08-06T11:25:05;98523.97;;;18.35;77.72
53526;BME280;40551;50.478;19.378;2022-08-06T11:27:54;98524.87;;;18.28;77.68
53526;BME280;40551;50.478;19.378;2022-08-06T11:30:41;98527.91;;;18.25;77.73
53526;BME280;40551;50.478;19.378;2022-08-06T11:33:17;98526.64;;;18.14;77.49
53526;BME280;40551;50.478;19.378;2022-08-06T11:35:47;98528.30;;;18.01;77.58
53526;BME280;40551;50.478;19.378;2022-08-06T11:38:58;98528.34;;;17.96;78.01
53526;BME280;40551;50.478;19.378;2022-08-06T11:41:56;98530.02;;;17.87;78.26
53526;BME280;40551;50.478;19.378;2022-08-06T11:44:29;98530.78;;;17.87;78.45
53526;BME280;40551;50.478;19.378;2022-08-06T11:47:05;98531.60;;;17.84;78.30
53526;BME280;40551;50.478;19.378;2022-08-06T11:49:39;98538.35;;;17.75;78.44
53526;BME280;40551;50.478;19.378;2022-08-06T11:52:38;98535.23;;;17.71;78.54
53526;BME280;40551;50.478;19.378;2022-08-06T11:55:09;98535.73;;;17.71;78.87
53526;BME280;40551;50.478;19.378;2022-08-06T12:00:55;98533.88;;;17.79;79.01
53526;BME280;40551;50.478;19.378;2022-08-06T12:03:38;98529.61;;;17.86;78.92
53526;BME280;40551;50.478;19.378;2022-08-06T12:06:22;98532.38;;;17.88;78.54
53526;BME280;40551;50.478;19.378;2022-08-06T12:09:08;98536.48;;;17.88;78.32
53526;BME280;40551;50.478;19.378;2022-08-06T12:11:44;98538.58;;;17.86;78.20
53526;BME280;40551;50.478;19.378;2022-08-06T12:14:39;98540.63;;;17.80;78.03
53526;BME280;40551;50.478;19.378;2022-08-06T12:17:17;98544.40;;;17.75;78.07
53526;BME280;40551;50.478;19.378;2022-08-06T12:19:49;98544.56;;;17.76;78.29
53526;BME280;40551;50.478;19.378;2022-08-06T12:22:31;98544.40;;;17.79;78.50
53526;BME280;40551;50.478;19.378;2022-08-06T12:25:02;98545.83;;;17.77;78.21
53526;BME280;40551;50.478;19.378;2022-08-06T12:27:40;98548.90;;;17.73;78.31
53526;BME280;40551;50.478;19.378;2022-08-06T12:30:22;98544.20;;;17.71;78.35
53526;BME280;40551;50.478;19.378;2022-08-06T12:33:06;98545.18;;;17.70;78.54
53526;BME280;40551;50.478;19.378;2022-08-06T12:35:51;98551.17;;;17.74;78.67
53526;BME280;40551;50.478;19.378;2022-08-06T12:38:21;98551.22;;;17.78;78.51
53526;BME280;40551;50.478;19.378;2022-08-06T12:40:53;98552.95;;;17.78;78.33
53526;BME280;40551;50.478;19.378;2022-08-06T12:43:24;98553.61;;;17.78;78.34
53526;BME280;40551;50.478;19.378;2022-08-06T12:46:13;98558.41;;;17.79;78.33
53526;BME280;40551;50.478;19.378;2022-08-06T12:48:49;98559.38;;;17.78;78.28
53526;BME280;40551;50.478;19.378;2022-08-06T12:51:18;98559.64;;;17.76;78.16
53526;BME280;40551;50.478;19.378;2022-08-06T12:53:57;98561.56;;;17.72;78.19
53526;BME280;40551;50.478;19.378;2022-08-06T12:56:28;98559.80;;;17.71;78.24
53526;BME280;40551;50.478;19.378;2022-08-06T12:59:02;98562.15;;;17.65;77.97
53526;BME280;40551;50.478;19.378;2022-08-06T13:01:34;98560.04;;;17.60;78.08
53526;BME280;40551;50.478;19.378;2022-08-06T13:04:24;98562.28;;;17.61;78.30
53526;BME280;40551;50.478;19.378;2022-08-06T13:07:00;98560.70;;;17.59;78.33
53526;BME280;40551;50.478;19.378;2022-08-06T13:09:30;98564.67;;;17.56;78.34
53526;BME280;40551;50.478;19.378;2022-08-06T13:12:18;98560.30;;;17.53;78.41
53526;BME280;40551;50.478;19.378;2022-08-06T13:14:57;98559.81;;;17.55;78.56
53526;BME280;40551;50.478;19.378;2022-08-06T13:18:01;98561.39;;;17.56;78.60
53526;BME280;40551;50.478;19.378;2022-08-06T13:20:37;98558.92;;;17.55;78.38
53526;BME280;40551;50.478;19.378;2022-08-06T13:23:06;98562.13;;;17.54;78.57
53526;BME280;40551;50.478;19.378;2022-08-06T13:25:42;98566.02;;;17.52;78.27
53526;BME280;40551;50.478;19.378;2022-08-06T13:28:22;98568.77;;;17.52;78.43
53526;BME280;40551;50.478;19.378;2022-08-06T13:30:57;98573.15;;;17.54;78.52
53526;BME280;40551;50.478;19.378;2022-08-06T13:33:28;98576.48;;;17.54;78.35
53526;BME280;40551;50.478;19.378;2022-08-06T13:36:07;98577.66;;;17.55;78.22
53526;BME280;40551;50.478;19.378;2022-08-06T13:38:40;98585.69;;;17.51;78.24
53526;BME280;40551;50.478;19.378;2022-08-06T13:41:24;98585.90;;;17.49;78.25
53526;BME280;40551;50.478;19.378;2022-08-06T13:43:57;98579.96;;;17.49;78.40
53526;BME280;40551;50.478;19.378;2022-08-06T13:46:27;98589.31;;;17.49;78.40
53526;BME280;40551;50.478;19.378;2022-08-06T13:49:00;98589.14;;;17.50;78.51
53526;BME280;40551;50.478;19.378;2022-08-06T13:51:42;98595.11;;;17.49;78.51
53526;BME280;40551;50.478;19.378;2022-08-06T13:54:23;98595.58;;;17.39;78.22